createdAt,value
2023-02-02T00:02:05.947Z,7.50
2023-02-02T00:04:35.065Z,7.50
2023-02-02T00:07:02.967Z,7.40
2023-02-02T00:09:31.419Z,7.40
2023-02-02T00:11:59.606Z,7.40
2023-02-02T00:14:26.622Z,7.50
2023-02-02T00:16:54.876Z,7.40
2023-02-02T00:19:27.419Z,7.40
2023-02-02T00:21:54.947Z,7.50
2023-02-02T00:24:22.131Z,7.50
2023-02-02T00:26:51.099Z,7.50
2023-02-02T00:29:23.506Z,7.50
2023-02-02T00:31:50.505Z,7.50
2023-02-02T00:34:17.709Z,7.50
2023-02-02T00:36:45.188Z,7.50
2023-02-02T00:39:16.020Z,7.60
2023-02-02T00:41:42.777Z,7.50
2023-02-02T00:44:28.049Z,7.60
2023-02-02T00:46:54.778Z,7.60
2023-02-02T00:49:21.656Z,7.60
2023-02-02T00:51:48.277Z,7.60
2023-02-02T00:54:14.943Z,7.60
2023-02-02T00:56:41.918Z,7.60
2023-02-02T00:59:08.564Z,7.60
2023-02-02T01:01:35.434Z,7.60
2023-02-02T01:04:02.289Z,7.70
2023-02-02T01:06:28.958Z,7.60
2023-02-02T01:08:55.646Z,7.60
2023-02-02T01:11:22.390Z,7.70
2023-02-02T01:13:48.974Z,7.60
2023-02-02T01:16:15.856Z,7.70
2023-02-02T01:18:42.721Z,7.70
2023-02-02T01:21:11.807Z,7.70
2023-02-02T01:23:39.518Z,7.70
2023-02-02T01:26:08.769Z,7.70
2023-02-02T01:28:35.753Z,7.70
2023-02-02T01:31:12.074Z,7.70
2023-02-02T01:33:39.385Z,7.70
2023-02-02T01:36:09.862Z,7.70
2023-02-02T01:38:36.638Z,7.70
2023-02-02T01:41:07.068Z,7.70
2023-02-02T01:43:45.457Z,7.70
2023-02-02T01:46:13.631Z,7.60
2023-02-02T01:48:43.920Z,7.70
2023-02-02T01:51:17.646Z,7.60
2023-02-02T01:53:46.041Z,7.60
2023-02-02T01:56:17.644Z,7.60
2023-02-02T01:58:45.581Z,7.60
2023-02-02T02:01:13.648Z,7.60
2023-02-02T02:03:40.435Z,7.50
2023-02-02T02:06:15.161Z,7.50
2023-02-02T02:08:57.260Z,7.50
2023-02-02T02:11:24.933Z,7.50
2023-02-02T02:14:12.713Z,7.50
2023-02-02T02:16:45.360Z,7.60
2023-02-02T02:20:08.708Z,7.50
2023-02-02T02:23:15.953Z,7.60
2023-02-02T02:26:23.649Z,7.50
2023-02-02T02:29:22.415Z,7.50
2023-02-02T02:32:29.876Z,7.60
2023-02-02T02:34:56.609Z,7.50
2023-02-02T02:37:29.074Z,7.50
2023-02-02T02:40:02.538Z,7.50
2023-02-02T02:42:33.590Z,7.50
2023-02-02T02:45:02.579Z,7.50
2023-02-02T02:47:31.315Z,7.50
2023-02-02T02:49:58.089Z,7.50
2023-02-02T02:52:24.676Z,7.60
2023-02-02T02:54:55.876Z,7.60
2023-02-02T02:57:32.188Z,7.60
2023-02-02T03:00:23.128Z,7.60
2023-02-02T03:03:05.328Z,7.60
2023-02-02T03:05:54.355Z,7.60
2023-02-02T03:08:46.638Z,7.70
2023-02-02T03:11:15.159Z,7.70
2023-02-02T03:13:43.183Z,7.70
2023-02-02T03:16:10.861Z,7.70
2023-02-02T03:18:37.579Z,7.70
2023-02-02T03:21:04.362Z,7.70
2023-02-02T03:23:30.984Z,7.70
2023-02-02T03:25:57.700Z,7.80
2023-02-02T03:28:25.055Z,7.80
2023-02-02T03:30:53.267Z,7.80
2023-02-02T03:33:20.241Z,7.80
2023-02-02T03:35:47.316Z,7.80
2023-02-02T03:38:14.121Z,7.80
2023-02-02T03:40:41.082Z,7.80
2023-02-02T03:43:08.052Z,7.80
2023-02-02T03:45:40.567Z,7.80
2023-02-02T03:48:07.262Z,7.90
2023-02-02T03:50:34.301Z,7.90
2023-02-02T03:53:00.944Z,7.90
2023-02-02T03:55:27.609Z,7.90
2023-02-02T03:57:54.209Z,7.90
2023-02-02T04:00:21.312Z,7.90
2023-02-02T04:02:48.049Z,7.90
2023-02-02T04:05:14.712Z,7.90
2023-02-02T04:07:41.437Z,7.90
2023-02-02T04:10:08.556Z,7.90
2023-02-02T04:12:35.304Z,7.90
2023-02-02T04:15:01.962Z,7.90
2023-02-02T04:17:28.538Z,7.90
2023-02-02T04:19:58.081Z,7.90
2023-02-02T04:22:26.084Z,7.90
2023-02-02T04:24:52.993Z,7.90
2023-02-02T04:27:19.882Z,7.90
2023-02-02T04:29:46.619Z,7.90
2023-02-02T04:32:16.317Z,7.90
2023-02-02T04:34:43.476Z,7.90
2023-02-02T04:37:11.112Z,7.90
2023-02-02T04:39:37.884Z,7.90
2023-02-02T04:42:04.618Z,7.90
2023-02-02T04:44:31.202Z,7.90
2023-02-02T04:46:57.802Z,7.90
2023-02-02T04:49:24.505Z,7.90
2023-02-02T04:51:51.456Z,7.80
2023-02-02T04:54:18.241Z,7.70
2023-02-02T04:56:44.893Z,7.70
2023-02-02T04:59:11.492Z,7.60
2023-02-02T05:01:38.073Z,7.70
2023-02-02T05:04:04.849Z,7.70
2023-02-02T05:06:31.512Z,7.70
2023-02-02T05:08:58.116Z,7.70
2023-02-02T05:11:24.838Z,7.70
2023-02-02T05:13:53.699Z,7.70
2023-02-02T05:16:22.572Z,7.70
2023-02-02T05:18:54.638Z,7.70
2023-02-02T05:21:21.734Z,7.70
2023-02-02T05:23:49.057Z,7.70
2023-02-02T05:26:18.483Z,7.60
2023-02-02T05:28:45.395Z,7.60
2023-02-02T05:31:12.108Z,7.60
2023-02-02T05:33:38.725Z,7.60
2023-02-02T05:36:06.328Z,7.60
2023-02-02T05:38:33.067Z,7.60
2023-02-02T05:41:00.258Z,7.60
2023-02-02T05:43:28.909Z,7.60
2023-02-02T05:45:55.774Z,7.60
2023-02-02T05:48:22.439Z,7.60
2023-02-02T05:51:01.668Z,7.60
2023-02-02T05:53:30.541Z,7.60
2023-02-02T05:55:57.434Z,7.50
2023-02-02T05:58:24.144Z,7.50
2023-02-02T06:00:50.746Z,7.50
2023-02-02T06:03:17.521Z,7.50
2023-02-02T06:05:44.142Z,7.50
2023-02-02T06:08:10.758Z,7.40
2023-02-02T06:10:41.589Z,7.40
2023-02-02T06:13:08.966Z,7.40
2023-02-02T06:15:36.366Z,7.40
2023-02-02T06:18:03.129Z,7.40
2023-02-02T06:20:29.826Z,7.40
2023-02-02T06:22:56.437Z,7.40
2023-02-02T06:25:23.626Z,7.40
2023-02-02T06:27:50.464Z,7.50
2023-02-02T06:30:17.218Z,7.40
2023-02-02T06:32:43.802Z,7.40
2023-02-02T06:35:10.513Z,7.40
2023-02-02T06:37:38.925Z,7.40
2023-02-02T06:40:07.661Z,7.40
2023-02-02T06:42:34.588Z,7.30
2023-02-02T06:45:01.172Z,7.40
2023-02-02T06:47:27.797Z,7.40
2023-02-02T06:49:54.501Z,7.40
2023-02-02T06:52:21.153Z,7.40
2023-02-02T06:54:47.748Z,7.40
2023-02-02T06:57:14.412Z,7.40
2023-02-02T06:59:41.542Z,7.30
2023-02-02T07:02:13.135Z,7.30
2023-02-02T07:04:40.050Z,7.40
2023-02-02T07:07:06.617Z,7.40
2023-02-02T07:09:34.264Z,7.40
2023-02-02T07:12:01.004Z,7.40
2023-02-02T07:14:27.581Z,7.40
2023-02-02T07:16:54.208Z,7.40
2023-02-02T07:19:20.852Z,7.40
2023-02-02T07:21:47.547Z,7.40
2023-02-02T07:24:14.113Z,7.40
2023-02-02T07:26:40.908Z,7.40
2023-02-02T07:29:07.670Z,7.40
2023-02-02T07:31:36.609Z,7.40
2023-02-02T07:34:03.580Z,7.40
2023-02-02T07:36:30.223Z,7.40
2023-02-02T07:39:01.943Z,7.40
2023-02-02T07:41:28.524Z,7.40
2023-02-02T07:43:55.249Z,7.40
2023-02-02T07:46:22.361Z,7.40
2023-02-02T07:48:49.139Z,7.40
2023-02-02T07:51:18.225Z,7.30
2023-02-02T07:53:51.386Z,7.20
2023-02-02T07:56:23.891Z,7.20
2023-02-02T07:58:53.060Z,7.20
2023-02-02T08:01:22.650Z,7.20
2023-02-02T08:03:50.489Z,7.20
2023-02-02T08:06:24.545Z,7.20
2023-02-02T08:08:51.657Z,7.20
2023-02-02T08:11:21.390Z,7.20
2023-02-02T08:13:52.602Z,7.20
2023-02-02T08:16:19.996Z,7.30
2023-02-02T08:18:47.127Z,7.30
2023-02-02T08:21:14.288Z,7.20
2023-02-02T08:23:42.245Z,7.30
2023-02-02T08:26:22.325Z,7.30
2023-02-02T08:29:08.201Z,7.30
2023-02-02T08:31:41.721Z,7.20
2023-02-02T08:34:08.492Z,7.20
2023-02-02T08:36:35.526Z,7.30
2023-02-02T08:39:04.905Z,7.30
2023-02-02T08:41:32.574Z,7.30
2023-02-02T08:43:59.520Z,7.20
2023-02-02T08:46:26.374Z,7.20
2023-02-02T08:48:53.020Z,7.20
2023-02-02T08:51:20.275Z,7.20
2023-02-02T08:53:47.636Z,7.10
2023-02-02T08:56:19.164Z,7.10
2023-02-02T08:58:47.576Z,7.10
2023-02-02T09:01:32.019Z,7.10
2023-02-02T09:04:02.280Z,7.20
2023-02-02T09:06:33.392Z,7.20
2023-02-02T09:09:00.487Z,7.20
2023-02-02T09:11:27.909Z,7.20
2023-02-02T09:13:57.041Z,7.20
2023-02-02T09:16:24.799Z,7.30
2023-02-02T09:18:51.604Z,7.30
2023-02-02T09:21:19.385Z,7.30
2023-02-02T09:23:47.590Z,7.30
2023-02-02T09:26:18.684Z,7.30
2023-02-02T09:28:48.186Z,7.30
2023-02-02T09:31:15.958Z,7.30
2023-02-02T09:33:43.464Z,7.40
2023-02-02T09:36:22.095Z,7.30
2023-02-02T09:38:50.246Z,7.30
2023-02-02T09:41:29.172Z,7.30
2023-02-02T09:44:10.776Z,7.30
2023-02-02T09:46:59.396Z,7.30
2023-02-02T09:49:47.777Z,7.30
2023-02-02T09:52:20.777Z,7.30
2023-02-02T09:54:49.488Z,7.30
2023-02-02T09:57:22.440Z,7.40
2023-02-02T09:59:52.111Z,7.40
2023-02-02T10:02:42.126Z,7.40
2023-02-02T10:05:16.870Z,7.40
2023-02-02T10:07:47.980Z,7.40
2023-02-02T10:10:26.631Z,7.40
2023-02-02T10:13:04.613Z,7.40
2023-02-02T10:15:44.314Z,7.40
2023-02-02T10:18:20.813Z,7.50
2023-02-02T10:21:00.790Z,7.50
2023-02-02T10:23:36.868Z,7.50
2023-02-02T10:26:03.460Z,7.50
2023-02-02T10:28:57.057Z,7.50
2023-02-02T10:31:35.774Z,7.50
2023-02-02T10:34:13.647Z,7.60
2023-02-02T10:36:58.516Z,7.60
2023-02-02T10:39:59.023Z,7.60
2023-02-02T10:42:25.639Z,7.70
2023-02-02T10:45:00.041Z,7.70
2023-02-02T10:47:30.319Z,7.70
2023-02-02T10:50:21.619Z,7.80
2023-02-02T10:52:53.044Z,7.80
2023-02-02T10:55:32.876Z,7.80
2023-02-02T10:58:32.138Z,7.80
2023-02-02T11:01:01.235Z,7.90
2023-02-02T11:03:29.943Z,7.90
2023-02-02T11:06:18.582Z,7.90
2023-02-02T11:08:48.058Z,7.90
2023-02-02T11:11:25.688Z,7.90
2023-02-02T11:14:04.709Z,8.00
2023-02-02T11:16:42.706Z,8.00
2023-02-02T11:19:19.731Z,8.00
2023-02-02T11:21:56.408Z,8.00
2023-02-02T11:24:45.250Z,8.00
2023-02-02T11:27:24.090Z,8.10
2023-02-02T11:30:15.168Z,8.10
2023-02-02T11:32:41.807Z,8.10
2023-02-02T11:35:08.384Z,8.10
2023-02-02T11:37:36.311Z,8.10
2023-02-02T11:40:29.983Z,8.20
2023-02-02T11:42:59.827Z,8.20
2023-02-02T11:45:42.296Z,8.10
2023-02-02T11:48:26.358Z,8.20
2023-02-02T11:50:55.132Z,8.20
2023-02-02T11:53:25.544Z,8.20
2023-02-02T11:55:53.131Z,8.20
2023-02-02T11:58:27.428Z,8.20
2023-02-02T12:00:55.846Z,8.20
2023-02-02T12:03:25.736Z,8.20
2023-02-02T12:05:52.918Z,8.20
2023-02-02T12:08:20.535Z,8.20
2023-02-02T12:11:02.870Z,8.20
2023-02-02T12:13:48.728Z,8.20
2023-02-02T12:16:33.906Z,8.20
2023-02-02T12:19:04.863Z,8.30
2023-02-02T12:21:53.071Z,8.30
2023-02-02T12:24:34.443Z,8.30
2023-02-02T12:27:29.819Z,8.30
2023-02-02T12:30:08.729Z,8.30
2023-02-02T12:32:44.189Z,8.30
2023-02-02T12:35:39.917Z,8.30
2023-02-02T12:38:06.496Z,8.30
2023-02-02T12:40:48.272Z,8.30
2023-02-02T12:43:14.796Z,8.30
2023-02-02T12:46:12.122Z,8.30
2023-02-02T12:49:16.865Z,8.40
2023-02-02T12:52:02.573Z,8.40
2023-02-02T12:54:44.921Z,8.30
2023-02-02T12:57:22.718Z,8.30
2023-02-02T12:59:55.385Z,8.40
2023-02-02T13:02:41.861Z,8.30
2023-02-02T13:05:37.443Z,8.40
2023-02-02T13:08:12.491Z,8.40
2023-02-02T13:10:43.023Z,8.40
2023-02-02T13:13:19.524Z,8.40
2023-02-02T13:15:50.955Z,8.40
2023-02-02T13:18:25.810Z,8.40
2023-02-02T13:21:02.308Z,8.40
2023-02-02T13:23:33.985Z,8.40
2023-02-02T13:26:08.912Z,8.40
2023-02-02T13:28:42.209Z,8.40
2023-02-02T13:31:18.376Z,8.30
2023-02-02T13:33:49.456Z,8.30
2023-02-02T13:36:29.484Z,8.30
2023-02-02T13:38:59.874Z,8.40
2023-02-02T13:41:28.277Z,8.40
2023-02-02T13:44:07.123Z,8.40
2023-02-02T13:46:42.659Z,8.50
2023-02-02T13:49:23.247Z,8.40
2023-02-02T13:52:01.455Z,8.50
2023-02-02T13:54:53.814Z,8.50
2023-02-02T13:57:26.372Z,8.50
2023-02-02T14:00:11.691Z,8.50
2023-02-02T14:02:53.556Z,8.50
2023-02-02T14:05:23.316Z,8.50
2023-02-02T14:07:57.313Z,8.50
2023-02-02T14:10:39.206Z,8.60
2023-02-02T14:13:33.929Z,8.50
2023-02-02T14:16:03.470Z,8.60
2023-02-02T14:18:48.584Z,8.60
2023-02-02T14:21:33.474Z,8.60
2023-02-02T14:24:23.501Z,8.60
2023-02-02T14:26:56.191Z,8.60
2023-02-02T14:29:31.927Z,8.60
2023-02-02T14:32:29.089Z,8.60
2023-02-02T14:35:14.297Z,8.70
2023-02-02T14:37:52.870Z,8.60
2023-02-02T14:40:34.773Z,8.60
2023-02-02T14:43:43.836Z,8.50
2023-02-02T14:46:13.347Z,8.50
2023-02-02T14:48:59.989Z,8.50
2023-02-02T14:51:30.566Z,8.50
2023-02-02T14:54:04.509Z,8.40
2023-02-02T14:56:42.708Z,8.50
2023-02-02T14:59:19.917Z,8.50
2023-02-02T15:01:57.446Z,8.40
2023-02-02T15:04:26.818Z,8.40
2023-02-02T15:06:54.585Z,8.30
2023-02-02T15:09:26.308Z,8.30
2023-02-02T15:12:02.159Z,8.30
2023-02-02T15:14:52.815Z,8.30
2023-02-02T15:17:28.622Z,8.30
2023-02-02T15:20:20.708Z,8.30
2023-02-02T15:23:08.097Z,8.30
2023-02-02T15:25:47.682Z,8.30
2023-02-02T15:28:38.951Z,8.30
2023-02-02T15:31:15.192Z,8.30
2023-02-02T15:33:44.827Z,8.30
2023-02-02T15:36:13.980Z,8.20
2023-02-02T15:38:43.403Z,8.20
2023-02-02T15:41:19.054Z,8.30
2023-02-02T15:43:45.994Z,8.30
2023-02-02T15:46:23.742Z,8.20
2023-02-02T15:49:32.926Z,8.20
2023-02-02T15:52:09.974Z,8.20
2023-02-02T15:54:39.805Z,8.20
2023-02-02T15:57:24.890Z,8.10
2023-02-02T15:59:51.735Z,8.20
2023-02-02T16:02:42.911Z,8.20
2023-02-02T16:05:35.277Z,8.20
2023-02-02T16:08:06.047Z,8.10
2023-02-02T16:10:34.286Z,8.10
2023-02-02T16:13:01.480Z,8.10
2023-02-02T16:15:31.929Z,8.00
2023-02-02T16:18:02.432Z,8.00
2023-02-02T16:20:32.893Z,8.00
2023-02-02T16:23:02.036Z,8.00
2023-02-02T16:25:32.324Z,7.90
2023-02-02T16:28:00.849Z,7.90
2023-02-02T16:30:35.391Z,7.90
2023-02-02T16:33:33.922Z,7.90
2023-02-02T16:36:00.869Z,7.90
2023-02-02T16:38:36.502Z,7.90
2023-02-02T16:41:12.160Z,7.90
2023-02-02T16:43:43.092Z,7.90
2023-02-02T16:46:15.302Z,7.90
2023-02-02T16:49:00.130Z,7.90
2023-02-02T16:51:33.899Z,7.80
2023-02-02T16:54:06.736Z,7.80
2023-02-02T16:56:45.809Z,7.80
2023-02-02T16:59:24.407Z,7.80
2023-02-02T17:02:21.248Z,7.70
2023-02-02T17:04:52.009Z,7.80
2023-02-02T17:07:20.455Z,7.80
2023-02-02T17:09:48.471Z,7.80
2023-02-02T17:12:34.984Z,7.80
2023-02-02T17:15:31.127Z,7.80
2023-02-02T17:17:58.792Z,7.80
2023-02-02T17:20:26.673Z,7.80
2023-02-02T17:23:01.201Z,7.80
2023-02-02T17:25:35.608Z,7.80
2023-02-02T17:28:03.527Z,7.80
2023-02-02T17:30:30.621Z,7.80
2023-02-02T17:32:57.478Z,7.80
2023-02-02T17:35:26.847Z,7.80
2023-02-02T17:37:54.250Z,7.80
2023-02-02T17:40:23.172Z,7.80
2023-02-02T17:42:52.250Z,7.80
2023-02-02T17:45:28.540Z,7.80
2023-02-02T17:47:55.390Z,7.80
2023-02-02T17:50:22.164Z,7.80
2023-02-02T17:55:31.674Z,7.80
2023-02-02T17:57:58.317Z,7.80
2023-02-02T18:00:27.642Z,7.80
2023-02-02T18:03:09.245Z,7.80
2023-02-02T18:05:37.805Z,7.80
2023-02-02T18:08:05.102Z,7.80
2023-02-02T18:10:31.805Z,7.70
2023-02-02T18:12:58.396Z,7.80
2023-02-02T18:15:25.335Z,7.80
2023-02-02T18:17:52.348Z,7.80
2023-02-02T18:20:19.064Z,7.80
2023-02-02T18:22:48.150Z,7.80
2023-02-02T18:25:15.208Z,7.80
2023-02-02T18:27:41.812Z,7.80
2023-02-02T18:30:09.630Z,7.80
2023-02-02T18:32:38.218Z,7.80
2023-02-02T18:35:05.942Z,7.80
2023-02-02T18:37:32.564Z,7.90
2023-02-02T18:39:59.136Z,7.90
2023-02-02T18:42:29.805Z,7.90
2023-02-02T18:44:56.885Z,7.90
2023-02-02T18:47:23.628Z,7.90
2023-02-02T18:49:50.419Z,7.90
2023-02-02T18:52:18.905Z,7.90
2023-02-02T18:54:47.607Z,7.90
2023-02-02T18:57:14.477Z,7.90
2023-02-02T18:59:41.794Z,7.80
2023-02-02T19:02:14.005Z,7.80
2023-02-02T19:05:00.936Z,7.80
2023-02-02T19:07:46.321Z,7.80
2023-02-02T19:10:12.978Z,7.80
2023-02-02T19:12:39.633Z,7.80
2023-02-02T19:15:13.559Z,7.80
2023-02-02T19:17:40.761Z,7.80
2023-02-02T19:20:20.901Z,7.80
2023-02-02T19:22:47.473Z,7.80
2023-02-02T19:25:14.109Z,7.80
2023-02-02T19:27:41.165Z,7.80
2023-02-02T19:30:18.391Z,7.90
2023-02-02T19:32:45.229Z,7.80
2023-02-02T19:35:29.510Z,7.90
2023-02-02T19:38:01.649Z,7.90
2023-02-02T19:40:28.597Z,7.90
2023-02-02T19:42:59.373Z,7.90
2023-02-02T19:45:34.393Z,7.90
2023-02-02T19:48:13.920Z,7.90
2023-02-02T19:50:43.397Z,7.90
2023-02-02T19:53:31.201Z,7.90
2023-02-02T19:55:57.793Z,7.90
2023-02-02T19:58:28.778Z,7.90
2023-02-02T20:00:57.793Z,7.90
2023-02-02T20:03:27.915Z,8.00
2023-02-02T20:05:56.865Z,7.90
2023-02-02T20:08:31.458Z,8.00
2023-02-02T20:11:28.449Z,8.00
2023-02-02T20:13:55.041Z,8.00
2023-02-02T20:16:23.835Z,8.00
2023-02-02T20:18:57.671Z,8.00
2023-02-02T20:21:34.447Z,8.00
2023-02-02T20:24:01.073Z,8.00
2023-02-02T20:26:37.165Z,8.00
2023-02-02T20:29:43.307Z,8.10
2023-02-02T20:32:26.792Z,8.10
2023-02-02T20:34:55.991Z,8.10
2023-02-02T20:37:29.136Z,8.10
2023-02-02T20:40:01.125Z,8.10
2023-02-02T20:42:28.897Z,8.10
2023-02-02T20:44:57.967Z,8.10
2023-02-02T20:47:24.810Z,8.10
2023-02-02T20:49:51.410Z,8.10
2023-02-02T20:52:23.347Z,8.20
2023-02-02T20:54:51.328Z,8.20
2023-02-02T20:57:18.136Z,8.20
2023-02-02T20:59:44.793Z,8.20
2023-02-02T21:02:18.767Z,8.20
2023-02-02T21:04:49.171Z,8.20
2023-02-02T21:07:17.416Z,8.20
2023-02-02T21:09:44.738Z,8.30
2023-02-02T21:12:11.896Z,8.30
2023-02-02T21:14:38.963Z,8.30
2023-02-02T21:17:14.948Z,8.30
2023-02-02T21:19:43.416Z,8.30
2023-02-02T21:22:10.646Z,8.30
2023-02-02T21:24:37.312Z,8.30
2023-02-02T21:27:04.459Z,8.30
2023-02-02T21:29:31.903Z,8.30
2023-02-02T21:32:00.586Z,8.40
2023-02-02T21:34:27.740Z,8.30
2023-02-02T21:36:59.027Z,8.40
2023-02-02T21:39:34.886Z,8.40
2023-02-02T21:42:07.431Z,8.50
2023-02-02T21:44:44.432Z,8.40
2023-02-02T21:47:27.710Z,8.40
2023-02-02T21:50:02.597Z,8.40
2023-02-02T21:52:33.795Z,8.50
2023-02-02T21:55:11.557Z,8.50
2023-02-02T21:57:38.204Z,8.50
2023-02-02T22:00:34.397Z,8.60
2023-02-02T22:03:01.117Z,8.50
2023-02-02T22:05:35.970Z,8.50
2023-02-02T22:08:22.346Z,8.50
2023-02-02T22:10:49.088Z,8.50
2023-02-02T22:13:22.783Z,8.50
2023-02-02T22:15:51.390Z,8.50
2023-02-02T22:18:20.791Z,8.50
2023-02-02T22:20:50.466Z,8.50
2023-02-02T22:23:20.502Z,8.60
2023-02-02T22:25:49.469Z,8.60
2023-02-02T22:28:21.310Z,8.50
2023-02-02T22:30:49.048Z,8.60
2023-02-02T22:33:16.123Z,8.60
2023-02-02T22:35:43.370Z,8.60
2023-02-02T22:38:15.317Z,8.60
2023-02-02T22:40:41.906Z,8.60
2023-02-02T22:43:08.643Z,8.60
2023-02-02T22:45:35.515Z,8.60
2023-02-02T22:48:02.157Z,8.60
2023-02-02T22:50:30.892Z,8.60
2023-02-02T22:52:58.172Z,8.60
2023-02-02T22:55:25.195Z,8.60
2023-02-02T22:57:51.866Z,8.60
2023-02-02T23:00:24.016Z,8.60
2023-02-02T23:02:51.562Z,8.60
2023-02-02T23:05:19.640Z,8.60
2023-02-02T23:07:47.346Z,8.60
2023-02-02T23:10:16.905Z,8.70
2023-02-02T23:12:44.147Z,8.70
2023-02-02T23:15:12.316Z,8.70
2023-02-02T23:17:38.945Z,8.70
2023-02-02T23:20:08.766Z,8.70
2023-02-02T23:22:35.757Z,8.70
2023-02-02T23:25:02.377Z,8.70
2023-02-02T23:27:29.030Z,8.70
2023-02-02T23:29:55.634Z,8.70
2023-02-02T23:32:22.294Z,8.70
2023-02-02T23:34:48.872Z,8.70
2023-02-02T23:37:15.471Z,8.70
2023-02-02T23:39:42.199Z,8.80
2023-02-02T23:42:08.764Z,8.70
2023-02-02T23:44:35.368Z,8.70
2023-02-02T23:47:02.854Z,8.70
2023-02-02T23:49:31.556Z,8.70
2023-02-02T23:51:58.273Z,8.70
2023-02-02T23:54:25.430Z,8.70
2023-02-02T23:56:52.344Z,8.70
2023-02-02T23:59:18.943Z,8.70
